Time;durP1;ratioP1;P1;durP2;ratioP2;P2;SDS_P1;SDS_P2;PMS_P1;PMS_P2;Temp;Humidity;BMP_temperature;BMP_pressure;BME280_temperature;BME280_humidity;BME280_pressure;Samples;Min_cycle;Max_cycle;Signal;HPM_P1;HPM_P2
2022/10/06 00:00:49;;;;;;;6.05;3.17;;;;;;;9.61;72.14;101362.63;5089062;28;20020;-30
2022/10/06 00:03:16;;;;;;;6.32;3.55;;;;;;;9.60;70.60;101312.19;5107095;28;20499;-30
2022/10/06 00:05:42;;;;;;;6.72;3.80;;;;;;;9.52;71.50;101336.25;5106769;28;20031;-27
2022/10/06 00:08:07;;;;;;;6.93;3.25;;;;;;;9.14;73.53;101361.00;5089103;28;20057;-27
2022/10/06 00:10:33;;;;;;;5.38;3.45;;;;;;;9.33;72.10;101343.72;5107134;28;20444;-27
2022/10/06 00:12:58;;;;;;;5.97;3.60;;;;;;;9.47;71.43;101350.09;5109848;28;20088;-28
2022/10/06 00:15:30;;;;;;;6.15;3.42;;;;;;;9.37;71.94;101349.53;5110904;28;20016;-29
2022/10/06 00:17:56;;;;;;;7.47;3.17;;;;;;;9.29;73.33;101346.94;5092263;28;20032;-27
2022/10/06 00:20:23;;;;;;;6.95;3.55;;;;;;;9.46;72.36;101345.78;5110523;28;20122;-26
2022/10/06 00:22:50;;;;;;;5.47;3.30;;;;;;;9.32;72.77;101346.59;5110829;28;20046;-28
2022/10/06 00:25:18;;;;;;;6.13;3.20;;;;;;;8.65;74.92;101324.91;5110674;28;20028;-27
2022/10/06 00:27:46;;;;;;;5.65;2.85;;;;;;;8.79;75.51;101352.59;5110278;28;20045;-27
2022/10/06 00:30:17;;;;;;;5.40;3.13;;;;;;;8.69;76.26;101349.34;5110688;28;20114;-27
2022/10/06 00:32:53;;;;;;;5.53;3.40;;;;;;;9.19;74.47;101358.66;5110342;28;20031;-28
2022/10/06 00:35:20;;;;;;;6.25;3.45;;;;;;;9.31;73.56;101323.63;5110313;28;20060;-30
2022/10/06 00:37:46;;;;;;;4.97;3.10;;;;;;;9.25;72.84;101344.63;5109886;28;20054;-27
2022/10/06 00:40:11;;;;;;;4.90;3.30;;;;;;;9.22;72.41;101326.34;5110308;28;20027;-27
2022/10/06 00:42:51;;;;;;;6.68;3.67;;;;;;;9.32;73.46;101341.25;5091790;28;20084;-26
2022/10/06 00:45:21;;;;;;;6.18;3.67;;;;;;;9.39;71.90;101332.34;5109797;28;20019;-28
2022/10/06 00:47:47;;;;;;;5.55;3.80;;;;;;;9.24;74.03;101350.94;5110537;28;20115;-28
2022/10/06 00:50:13;;;;;;;6.55;4.00;;;;;;;9.29;73.48;101330.97;5110496;28;20019;-26
2022/10/06 00:52:40;;;;;;;7.88;4.10;;;;;;;9.56;72.58;101345.53;5110254;28;20067;-30
2022/10/06 00:55:09;;;;;;;6.05;4.22;;;;;;;9.45;72.70;101336.13;5109975;28;20028;-27
2022/10/06 00:57:37;;;;;;;7.28;4.15;;;;;;;9.43;71.79;101344.31;5109636;28;20081;-29
2022/10/06 01:00:04;;;;;;;;;;;;;;;9.50;72.21;101347.09;5110268;28;20025;-28
2022/10/06 01:02:38;;;;;;;8.05;3.97;;;;;;;9.28;73.43;101345.28;5109575;28;20375;-29
2022/10/06 01:05:06;;;;;;;9.07;4.70;;;;;;;9.25;73.57;101352.63;5109768;28;20051;-27
2022/10/06 01:07:31;;;;;;;7.23;4.33;;;;;;;8.70;74.99;101321.72;5109431;28;20454;-29
2022/10/06 01:09:57;;;;;;;7.55;4.35;;;;;;;8.32;77.08;101329.53;5109776;28;20258;-27
2022/10/06 01:12:24;;;;;;;5.90;3.95;;;;;;;7.99;77.29;101303.09;5090809;28;20107;-26
2022/10/06 01:14:51;;;;;;;9.88;4.00;;;;;;;8.61;75.10;101334.25;5109584;28;20487;-29
2022/10/06 01:17:51;;;;;;;9.52;4.10;;;;;;;8.72;74.50;101343.66;5090907;28;20461;-27
2022/10/06 01:20:18;;;;;;;7.35;4.05;;;;;;;8.61;74.93;101328.94;5094893;28;20514;-28
2022/10/06 01:22:47;;;;;;;9.25;4.35;;;;;;;8.75;75.28;101345.97;5089900;28;20590;-28
2022/10/06 01:25:16;;;;;;;8.15;4.32;;;;;;;8.73;74.38;101315.25;5109476;28;20040;-29
2022/10/06 01:27:45;;;;;;;7.35;4.15;;;;;;;8.99;74.12;101314.88;5108777;28;20035;-29
2022/10/06 01:30:18;;;;;;;7.28;4.55;;;;;;;8.85;74.11;101317.31;5109381;28;20031;-26
2022/10/06 01:32:44;;;;;;;8.82;4.20;;;;;;;9.18;72.42;101338.34;5109149;28;20479;-27
2022/10/06 01:35:10;;;;;;;9.88;4.40;;;;;;;8.90;73.09;101324.75;5109369;28;20031;-27
2022/10/06 01:37:36;;;;;;;6.38;3.80;;;;;;;8.65;74.51;101340.03;5090230;28;20599;-26
2022/10/06 01:40:01;;;;;;;6.07;3.80;;;;;;;8.57;75.05;101329.47;5109135;28;20475;-26
2022/10/06 01:42:30;;;;;;;6.75;3.60;;;;;;;8.69;74.41;101314.75;5109282;28;20027;-30
2022/10/06 01:44:56;;;;;;;7.57;4.25;;;;;;;9.23;72.40;101322.69;5109042;28;20505;-28
2022/10/06 01:47:21;;;;;;;7.32;4.07;;;;;;;9.08;72.35;101329.78;5108858;28;20040;-30
2022/10/06 01:49:47;;;;;;;7.35;3.97;;;;;;;9.02;72.93;101304.72;5090062;28;20419;-28
2022/10/06 01:52:12;;;;;;;5.72;3.72;;;;;;;8.69;74.39;101320.06;5109020;28;20032;-26
2022/10/06 01:54:38;;;;;;;8.88;3.90;;;;;;;8.89;73.43;101295.66;5109216;28;20111;-25
2022/10/06 01:57:09;;;;;;;5.80;3.60;;;;;;;8.57;75.05;101316.16;5108558;28;20028;-29
2022/10/06 01:59:35;;;;;;;6.00;3.78;;;;;;;8.40;75.42;101321.53;5108256;28;20077;-28
2022/10/06 02:02:00;;;;;;;5.95;3.60;;;;;;;8.42;75.20;101314.25;5108572;28;20035;-27
2022/10/06 02:04:26;;;;;;;6.00;3.72;;;;;;;8.45;74.12;101299.78;5108180;28;20023;-27
2022/10/06 02:06:54;;;;;;;7.00;3.75;;;;;;;7.98;76.82;101296.13;5090143;28;20118;-28
2022/10/06 02:09:20;;;;;;;9.02;3.40;;;;;;;7.98;77.69;101300.59;5108632;28;20024;-27
2022/10/06 02:11:45;;;;;;;6.95;3.38;;;;;;;7.73;77.01;101291.91;5108113;28;20039;-28
2022/10/06 02:14:12;;;;;;;6.05;3.70;;;;;;;7.79;77.34;101312.47;5108505;28;20470;-30
2022/10/06 02:16:38;;;;;;;4.97;3.15;;;;;;;7.38;77.26;101283.34;5108677;28;20023;-27
2022/10/06 02:19:03;;;;;;;7.10;3.47;;;;;;;7.19;77.67;101280.03;5108183;28;20019;-27
2022/10/06 02:21:28;;;;;;;5.00;3.30;;;;;;;7.44;77.79;101325.13;5108233;28;20031;-27
2022/10/06 02:23:54;;;;;;;6.82;3.33;;;;;;;7.31;77.59;101307.03;5108052;28;20177;-28
2022/10/06 02:26:19;;;;;;;5.93;3.50;;;;;;;7.31;78.12;101314.19;5108052;28;20027;-29
2022/10/06 02:28:46;;;;;;;6.38;3.40;;;;;;;7.12;77.62;101326.78;5108223;28;20391;-28
2022/10/06 02:31:12;;;;;;;6.07;3.25;;;;;;;7.17;77.49;101339.53;5108083;28;20041;-30
2022/10/06 02:33:39;;;;;;;7.57;3.83;;;;;;;7.62;75.65;101328.44;5105793;28;20470;-26
2022/10/06 02:36:05;;;;;;;6.43;3.58;;;;;;;7.47;76.33;101316.00;5089010;28;20479;-27
2022/10/06 02:38:32;;;;;;;4.93;3.10;;;;;;;7.26;78.14;101314.69;5107924;28;20115;-29
2022/10/06 02:40:59;;;;;;;5.60;3.70;;;;;;;6.99;79.14;101321.16;5089556;28;20544;-26
2022/10/06 02:43:28;;;;;;;4.85;3.28;;;;;;;7.08;79.35;101333.41;5107748;28;20070;-28
2022/10/06 02:46:05;;;;;;;5.60;3.00;;;;;;;7.51;76.77;101326.09;5089160;28;20098;-27
2022/10/06 02:48:32;;;;;;;6.25;3.45;;;;;;;8.10;74.86;101340.94;5089538;28;20042;-32
2022/10/06 02:51:06;;;;;;;8.18;3.95;;;;;;;8.32;73.42;101334.03;5108182;28;20114;-27
2022/10/06 02:53:33;;;;;;;6.65;3.65;;;;;;;8.00;75.67;101336.63;5107404;28;20453;-29
2022/10/06 02:56:03;;;;;;;8.10;3.75;;;;;;;7.37;76.75;101332.09;5107733;28;20063;-27
2022/10/06 02:58:28;;;;;;;7.85;3.92;;;;;;;7.55;76.42;101311.50;5107652;28;20016;-28
2022/10/06 03:01:00;;;;;;;6.03;3.55;;;;;;;7.14;76.77;101319.47;5089083;28;20032;-25
2022/10/06 03:03:25;;;;;;;8.32;4.13;;;;;;;6.98;77.98;101327.44;5107711;28;20107;-28
2022/10/06 03:05:59;;;;;;;7.65;4.35;;;;;;;7.17;76.63;101340.41;5107669;28;20111;-28
2022/10/06 03:08:24;;;;;;;8.57;4.70;;;;;;;6.97;77.09;101341.69;5108014;28;20055;-26
2022/10/06 03:10:49;;;;;;;7.57;4.15;;;;;;;7.05;76.61;101341.72;5089641;28;20024;-26
2022/10/06 03:13:15;;;;;;;7.13;4.03;;;;;;;6.75;77.66;101341.31;5107433;28;20020;-31
2022/10/06 03:15:40;;;;;;;8.35;4.63;;;;;;;6.47;77.33;101324.84;5107265;28;20032;-26
2022/10/06 03:18:06;;;;;;;10.50;5.18;;;;;;;6.30;77.08;101305.41;5107865;28;20048;-26
2022/10/06 03:20:31;;;;;;;6.55;4.45;;;;;;;6.62;77.02;101319.75;5107747;28;20032;-28
2022/10/06 03:22:56;;;;;;;9.50;5.63;;;;;;;7.06;76.63;101338.03;5107672;28;20494;-27
2022/10/06 03:25:22;;;;;;;10.68;6.25;;;;;;;7.40;77.27;101340.56;5089028;28;20046;-26
2022/10/06 03:27:47;;;;;;;9.63;5.40;;;;;;;7.34;78.49;101314.69;5088900;28;20486;-27
2022/10/06 03:30:13;;;;;;;11.18;5.50;;;;;;;7.64;77.31;101325.56;5089141;28;20066;-28
2022/10/06 03:32:39;;;;;;;7.13;4.63;;;;;;;7.31;77.37;101309.69;5107901;28;20108;-30
2022/10/06 03:35:05;;;;;;;9.35;4.80;;;;;;;7.42;76.30;101311.19;5107782;28;20126;-25
2022/10/06 03:37:30;;;;;;;10.15;6.13;;;;;;;7.41;77.59;101325.44;5106819;28;20655;-30
2022/10/06 03:39:55;;;;;;;9.30;5.85;;;;;;;7.59;77.00;101315.47;5107626;28;20080;-27
2022/10/06 03:42:21;;;;;;;11.35;7.13;;;;;;;7.71;76.28;101318.63;5107235;28;20040;-28
2022/10/06 03:44:46;;;;;;;11.57;5.93;;;;;;;7.31;78.34;101292.94;5107637;28;20031;-26
2022/10/06 03:47:12;;;;;;;9.70;5.72;;;;;;;7.41;79.02;101320.97;5110597;28;20035;-27
2022/10/06 03:49:37;;;;;;;9.50;6.03;;;;;;;6.73;81.19;101273.56;5092766;28;20039;-29
2022/10/06 03:52:03;;;;;;;8.30;5.65;;;;;;;6.62;80.80;101293.25;5092848;28;20201;-29
2022/10/06 03:54:28;;;;;;;8.57;5.03;;;;;;;6.64;81.01;101320.44;5092685;28;20084;-29
2022/10/06 03:56:54;;;;;;;6.57;4.38;;;;;;;6.57;80.96;101330.00;5110804;28;20524;-27
2022/10/06 03:59:19;;;;;;;9.07;4.65;;;;;;;6.42;80.23;101298.00;5111122;28;20100;-29
2022/10/06 04:01:46;;;;;;;8.05;4.80;;;;;;;6.44;80.98;101328.66;5111380;28;20028;-27
2022/10/06 04:04:13;;;;;;;6.78;4.45;;;;;;;6.14;81.39;101324.72;5111132;28;20028;-28
2022/10/06 04:06:41;;;;;;;10.48;4.72;;;;;;;6.20;80.79;101316.13;5111157;28;20035;-26
2022/10/06 04:09:09;;;;;;;8.38;5.45;;;;;;;6.52;80.06;101329.66;5092466;28;20075;-25
2022/10/06 04:11:36;;;;;;;7.93;5.40;;;;;;;6.93;78.83;101319.16;5110464;28;20547;-26
2022/10/06 04:14:08;;;;;;;12.90;5.60;;;;;;;6.90;78.24;101293.78;5110600;28;20035;-28
2022/10/06 04:16:39;;;;;;;13.43;5.80;;;;;;;7.15;77.57;101310.53;5110708;28;20293;-29
2022/10/06 04:19:08;;;;;;;11.40;4.78;;;;;;;7.23;77.50;101302.59;5110706;28;20027;-26
2022/10/06 04:21:35;;;;;;;11.20;5.15;;;;;;;7.24;76.40;101296.28;5110407;28;20027;-30
2022/10/06 04:24:01;;;;;;;8.98;5.70;;;;;;;7.07;78.26;101301.75;5110431;28;20461;-28
2022/10/06 04:26:32;;;;;;;9.93;4.90;;;;;;;7.44;77.37;101314.50;5110714;28;20016;-26
2022/10/06 04:28:59;;;;;;;10.70;5.30;;;;;;;7.34;77.52;101288.16;5110697;28;20092;-29
2022/10/06 04:31:31;;;;;;;9.70;5.63;;;;;;;7.46;77.05;101291.28;5092013;28;20119;-27
2022/10/06 04:33:59;;;;;;;8.88;5.68;;;;;;;7.73;76.97;101323.75;5092242;28;20031;-27
2022/10/06 04:36:27;;;;;;;8.68;5.22;;;;;;;7.51;76.65;101293.44;5109929;28;20124;-28
2022/10/06 04:38:57;;;;;;;8.55;4.80;;;;;;;7.63;77.02;101313.31;5110299;28;20463;-29
2022/10/06 04:41:28;;;;;;;9.65;5.18;;;;;;;7.41;78.26;101310.34;5110190;28;20115;-26
2022/10/06 04:43:55;;;;;;;10.52;5.30;;;;;;;7.56;78.84;101305.22;5110191;28;20038;-28
2022/10/06 04:46:22;;;;;;;10.10;5.40;;;;;;;7.58;77.84;101284.63;5091619;28;20039;-26
2022/10/06 04:48:52;;;;;;;9.98;5.65;;;;;;;7.70;77.45;101292.22;5110073;28;20554;-27
2022/10/06 04:51:19;;;;;;;14.40;6.05;;;;;;;7.82;77.88;101314.75;5109888;28;20414;-26
2022/10/06 04:53:47;;;;;;;10.38;5.07;;;;;;;7.87;77.27;101315.09;5109793;28;20019;-29
2022/10/06 04:56:15;;;;;;;;;;;;;;;7.78;77.89;101318.75;5110305;28;20115;-27
2022/10/06 04:58:43;;;;;;;10.40;6.13;;;;;;;7.61;78.87;101315.31;5108946;28;19912;-26
2022/10/06 05:01:23;;;;;;;10.98;5.30;;;;;;;7.80;78.56;101322.06;5109667;28;20562;-28
2022/10/06 05:03:51;;;;;;;10.88;5.60;;;;;;;7.58;79.06;101283.78;5109466;28;20032;-27
2022/10/06 05:06:33;;;;;;;7.57;4.70;;;;;;;7.65;80.57;101304.19;5091711;28;20031;-27
2022/10/06 05:09:10;;;;;;;10.13;5.03;;;;;;;7.98;79.57;101303.25;5108536;28;20031;-30
2022/10/06 05:11:37;;;;;;;8.85;4.95;;;;;;;8.12;79.19;101312.34;5109224;28;20054;-27
2022/10/06 05:14:03;;;;;;;9.20;4.85;;;;;;;8.54;76.95;101324.47;5109250;28;20046;-27
2022/10/06 05:16:29;;;;;;;12.35;5.13;;;;;;;8.43;77.38;101331.84;5090871;28;20028;-26
2022/10/06 05:18:56;;;;;;;9.45;5.28;;;;;;;8.57;77.48;101326.78;5091233;28;20027;-26
2022/10/06 05:21:29;;;;;;;11.35;4.95;;;;;;;8.57;76.90;101321.47;5109442;28;20514;-27
2022/10/06 05:23:55;;;;;;;9.25;6.38;;;;;;;8.59;77.30;101324.78;5109226;28;20572;-27
2022/10/06 05:26:22;;;;;;;9.48;5.28;;;;;;;8.57;77.23;101316.16;5109119;28;20106;-29
2022/10/06 05:28:48;;;;;;;8.85;6.20;;;;;;;8.62;78.19;101327.09;5109153;28;20043;-30
2022/10/06 05:31:19;;;;;;;10.82;7.38;;;;;;;8.58;78.93;101323.97;5109300;28;20024;-26
2022/10/06 05:33:45;;;;;;;11.00;7.03;;;;;;;8.69;79.39;101330.72;5108724;28;20043;-27
2022/10/06 05:36:15;;;;;;;12.32;8.45;;;;;;;8.77;79.11;101338.66;5090511;28;20028;-29
2022/10/06 05:38:41;;;;;;;11.50;7.93;;;;;;;8.75;79.69;101318.56;5108808;28;20019;-28
2022/10/06 05:41:10;;;;;;;13.40;7.20;;;;;;;9.00;80.10;101337.84;5108798;28;20414;-30
2022/10/06 05:43:36;;;;;;;12.18;9.38;;;;;;;9.01;80.32;101339.47;5108716;28;20813;-27
2022/10/06 05:46:04;;;;;;;10.82;7.75;;;;;;;9.31;79.14;101329.75;5090749;28;20110;-27
2022/10/06 05:48:29;;;;;;;9.25;5.72;;;;;;;9.40;77.64;101320.72;5109094;28;20027;-27
2022/10/06 05:50:58;;;;;;;9.10;5.50;;;;;;;9.69;76.03;101347.59;5090439;28;20092;-28
2022/10/06 05:53:24;;;;;;;13.00;6.90;;;;;;;9.60;77.06;101338.81;5090119;28;20394;-27
2022/10/06 05:55:49;;;;;;;8.80;6.13;;;;;;;9.74;76.46;101342.53;5108395;28;20547;-29
2022/10/06 05:58:14;;;;;;;9.65;6.07;;;;;;;9.81;75.96;101324.81;5108679;28;20031;-27
2022/10/06 06:00:40;;;;;;;12.30;6.88;;;;;;;9.92;75.64;101332.34;5108689;28;20035;-29
2022/10/06 06:03:08;;;;;;;10.68;6.40;;;;;;;9.88;75.28;101331.06;5108687;28;20447;-27
2022/10/06 06:05:39;;;;;;;7.60;5.40;;;;;;;9.91;74.65;101329.84;5108304;28;20078;-26
2022/10/06 06:08:05;;;;;;;12.85;5.68;;;;;;;10.01;74.68;101317.94;5108395;28;20027;-29
2022/10/06 06:10:31;;;;;;;13.32;6.13;;;;;;;10.32;74.64;101334.72;5108562;28;20459;-27
2022/10/06 06:12:56;;;;;;;7.95;4.85;;;;;;;10.33;74.17;101337.22;5108533;28;20519;-27
2022/10/06 06:18:06;;;;;;;8.50;5.07;;;;;;;10.59;74.28;101359.91;5108338;28;20038;-28
2022/10/06 06:20:32;;;;;;;9.85;6.03;;;;;;;10.71;73.60;101366.41;5108051;28;20027;-29
2022/10/06 06:22:57;;;;;;;10.52;5.53;;;;;;;10.89;72.82;101349.13;5107914;28;20023;-30
2022/10/06 06:25:22;;;;;;;9.55;4.78;;;;;;;11.32;71.40;101371.34;5107985;28;20023;-27
2022/10/06 06:27:48;;;;;;;8.85;5.80;;;;;;;11.41;70.82;101364.84;5089717;28;20081;-29
2022/10/06 06:30:13;;;;;;;11.13;6.47;;;;;;;11.38;69.48;101348.38;5107979;28;20111;-27
2022/10/06 06:32:39;;;;;;;18.52;9.13;;;;;;;11.28;70.18;101364.75;5108140;28;20026;-30
2022/10/06 06:35:05;;;;;;;20.55;10.23;;;;;;;11.45;69.65;101343.91;5108619;28;20032;-29
2022/10/06 06:37:32;;;;;;;17.88;10.10;;;;;;;11.68;68.59;101365.06;5106656;28;20146;-29
2022/10/06 06:39:58;;;;;;;24.27;11.98;;;;;;;11.63;69.27;101360.31;5095260;28;20047;-27
2022/10/06 06:42:24;;;;;;;21.83;11.85;;;;;;;11.82;68.44;101360.63;5093712;28;20040;-27
2022/10/06 06:44:49;;;;;;;22.27;11.10;;;;;;;11.89;68.83;101361.56;5098821;28;20024;-29
2022/10/06 06:47:16;;;;;;;22.20;12.10;;;;;;;12.00;69.04;101352.97;5087152;28;20032;-27
2022/10/06 06:49:42;;;;;;;19.13;9.80;;;;;;;12.25;67.36;101363.19;5068786;28;20032;-27
2022/10/06 06:52:07;;;;;;;15.13;8.95;;;;;;;12.19;67.44;101350.59;5087045;28;20039;-28
2022/10/06 06:54:33;;;;;;;14.82;7.63;;;;;;;12.43;67.28;101368.81;5087489;28;20115;-28
2022/10/06 06:56:59;;;;;;;17.30;8.35;;;;;;;12.26;67.15;101335.44;5087292;28;20031;-27
2022/10/06 06:59:25;;;;;;;16.80;7.57;;;;;;;12.61;66.36;101370.16;5100924;28;20111;-28
2022/10/06 07:01:51;;;;;;;14.73;7.88;;;;;;;12.72;66.10;101369.56;5105425;28;20028;-27
2022/10/06 07:04:16;;;;;;;8.70;5.72;;;;;;;12.81;65.55;101370.19;5093871;28;20043;-28
2022/10/06 07:06:55;;;;;;;11.15;6.22;;;;;;;12.72;65.78;101350.81;5107143;28;20038;-28
2022/10/06 07:09:21;;;;;;;12.27;6.57;;;;;;;13.04;66.07;101351.09;5072822;28;20027;-27
2022/10/06 07:11:46;;;;;;;11.30;5.40;;;;;;;13.48;64.06;101370.34;5087031;28;20032;-27
2022/10/06 07:14:12;;;;;;;10.18;5.30;;;;;;;13.42;64.02;101347.84;5087007;28;20421;-28
2022/10/06 07:25:06;;;;;;;9.95;4.65;;;;;;;14.19;61.32;101350.84;5091245;28;20043;-27
2022/10/06 07:27:35;;;;;;;10.05;5.30;;;;;;;13.94;61.16;101343.47;5090790;28;20032;-29
2022/10/06 07:30:01;;;;;;;9.23;4.40;;;;;;;14.22;60.67;101353.09;5091116;28;20024;-27
2022/10/06 07:32:30;;;;;;;11.15;5.70;;;;;;;14.31;60.36;101333.06;5072577;28;20031;-28
2022/10/06 07:34:59;;;;;;;11.30;5.80;;;;;;;14.41;60.63;101346.84;5090601;28;20035;-28
2022/10/06 07:37:27;;;;;;;9.30;5.53;;;;;;;14.59;60.45;101348.03;5072288;28;20052;-27
2022/10/06 07:39:53;;;;;;;9.13;4.45;;;;;;;14.62;60.06;101321.56;5055400;28;20055;-28
2022/10/06 07:42:19;;;;;;;8.18;4.60;;;;;;;14.84;60.38;101327.44;5090932;28;20036;-27
2022/10/06 07:45:37;;;;;;;5.20;2.58;;;;;;;14.91;58.27;101326.56;5090742;28;20110;-26
2022/10/06 07:47:32;;;;;;;12.32;3.97;;;;;;;14.77;58.43;101315.94;5090302;28;20032;-31
2022/10/06 07:49:57;;;;;;;7.07;3.92;;;;;;;15.13;58.21;101329.72;5090509;28;20034;-28
2022/10/06 07:52:24;;;;;;;5.43;3.08;;;;;;;15.09;58.65;101334.72;5090218;28;20115;-30
2022/10/06 07:54:49;;;;;;;7.80;3.58;;;;;;;15.33;57.27;101316.97;5090323;28;20032;-27
2022/10/06 07:57:15;;;;;;;6.32;3.08;;;;;;;15.60;56.69;101314.03;5090301;28;20061;-32
2022/10/06 07:59:40;;;;;;;8.10;3.67;;;;;;;15.58;56.03;101306.19;5090067;28;20028;-27
2022/10/06 08:02:06;;;;;;;4.15;2.83;;;;;;;15.68;55.75;101297.63;5090355;28;20093;-30
2022/10/06 08:04:31;;;;;;;6.07;3.03;;;;;;;16.06;55.45;101308.19;5090424;28;20032;-28
2022/10/06 08:06:57;;;;;;;8.15;2.97;;;;;;;16.24;55.77;101293.06;5089987;28;20055;-33
2022/10/06 08:09:23;;;;;;;5.30;2.90;;;;;;;16.66;53.46;101310.13;5090486;28;20105;-26
2022/10/06 08:11:48;;;;;;;6.60;3.63;;;;;;;16.18;54.16;101296.66;5090401;28;20388;-27
2022/10/06 08:14:14;;;;;;;5.45;3.13;;;;;;;16.31;54.58;101285.75;5090366;28;20028;-28
2022/10/06 08:16:39;;;;;;;4.47;2.75;;;;;;;16.32;54.37;101311.59;5089958;28;20554;-29
2022/10/06 08:19:04;;;;;;;5.47;3.50;;;;;;;16.52;53.78;101281.72;5089800;28;20062;-28
2022/10/06 08:21:33;;;;;;;7.40;3.15;;;;;;;16.84;54.43;101303.06;5089918;28;20031;-31
2022/10/06 08:24:00;;;;;;;6.38;3.35;;;;;;;17.18;51.59;101306.91;5071602;28;20537;-29
2022/10/06 08:26:27;;;;;;;9.05;2.90;;;;;;;17.44;52.25;101307.47;5088421;28;20034;-27
2022/10/06 08:28:56;;;;;;;5.22;3.30;;;;;;;17.55;49.03;101289.66;5089898;28;20404;-26
2022/10/06 08:31:22;;;;;;;5.57;2.92;;;;;;;17.46;49.19;101310.75;5089685;28;20040;-27
2022/10/06 08:33:52;;;;;;;6.75;3.10;;;;;;;17.54;50.08;101310.41;5088301;28;20024;-28
2022/10/06 08:36:18;;;;;;;7.03;3.30;;;;;;;17.88;49.87;101302.56;5089163;28;20106;-29
2022/10/06 08:38:48;;;;;;;5.70;3.25;;;;;;;18.21;49.34;101290.28;5089452;28;20028;-29
2022/10/06 08:41:19;;;;;;;5.65;2.58;;;;;;;18.29;46.84;101308.81;5089654;28;20086;-28
2022/10/06 08:43:52;;;;;;;6.57;3.47;;;;;;;18.40;46.96;101304.41;5089257;28;20126;-32
2022/10/06 08:46:21;;;;;;;5.80;2.97;;;;;;;18.36;48.58;101278.94;5089518;28;20107;-30
2022/10/06 08:48:46;;;;;;;6.60;2.95;;;;;;;18.70;46.10;101298.78;5088958;28;20020;-30
2022/10/06 08:51:51;;;;;;;5.97;2.90;;;;;;;18.65;45.31;101268.94;5089907;28;20080;-30
2022/10/06 08:54:32;;;;;;;5.78;2.65;;;;;;;18.51;45.51;101300.03;5088133;28;20087;-28
2022/10/06 08:57:13;;;;;;;5.93;2.83;;;;;;;18.72;44.51;101296.66;5087700;28;20035;-27
2022/10/06 08:59:42;;;;;;;5.47;2.55;;;;;;;19.15;45.12;101289.81;5089595;28;20035;-27
2022/10/06 09:02:29;;;;;;;5.28;3.05;;;;;;;19.08;44.29;101299.97;5089115;28;20038;-27
2022/10/06 09:04:56;;;;;;;5.80;3.00;;;;;;;19.06;44.52;101285.88;5089154;28;20023;-30
2022/10/06 09:07:47;;;;;;;6.10;3.15;;;;;;;19.17;43.69;101295.00;5088889;28;20028;-27
2022/10/06 09:10:21;;;;;;;4.70;2.00;;;;;;;19.31;43.14;101284.66;5070837;28;20032;-27
2022/10/06 09:12:54;;;;;;;5.07;2.38;;;;;;;19.08;43.49;101278.34;5089056;28;20036;-30
2022/10/06 09:15:33;;;;;;;5.25;2.72;;;;;;;19.32;42.70;101280.88;5088998;28;20028;-27
2022/10/06 09:18:18;;;;;;;8.13;3.00;;;;;;;19.55;42.99;101266.34;5070291;28;20048;-30
2022/10/06 09:20:53;;;;;;;5.25;2.90;;;;;;;19.93;42.31;101279.06;5070605;28;20119;-28
2022/10/06 09:26:04;;;;;;;3.85;2.40;;;;;;;19.89;41.49;101250.84;5088768;28;20093;-28
2022/10/06 09:28:30;;;;;;;4.20;2.47;;;;;;;19.82;42.34;101269.19;5088738;28;20032;-29
2022/10/06 09:30:56;;;;;;;4.72;2.50;;;;;;;20.11;40.71;101261.66;5088671;28;20672;-27
2022/10/06 09:33:24;;;;;;;3.70;2.30;;;;;;;20.08;39.65;101248.63;5088720;28;20024;-33
2022/10/06 09:36:22;;;;;;;5.35;2.08;;;;;;;20.07;39.63;101264.06;5088229;28;20037;-28
2022/10/06 09:38:56;;;;;;;8.15;2.55;;;;;;;20.31;40.10;101244.84;5026847;28;20052;-30
2022/10/06 09:41:32;;;;;;;4.22;1.77;;;;;;;20.42;40.53;101260.09;5087249;28;20024;-29
2022/10/06 09:44:04;;;;;;;3.60;1.90;;;;;;;20.48;39.34;101231.97;5088003;28;20028;-28
2022/10/06 09:46:40;;;;;;;5.43;2.00;;;;;;;20.53;38.52;101246.66;5088204;28;20027;-30
2022/10/06 09:49:11;;;;;;;3.95;2.05;;;;;;;20.37;39.82;101256.50;5087821;28;20502;-30
2022/10/06 09:51:37;;;;;;;4.18;2.05;;;;;;;20.59;41.96;101232.91;5087909;28;20028;-28
2022/10/06 09:54:15;;;;;;;3.80;2.00;;;;;;;20.83;39.18;101238.81;5087916;28;20035;-28
2022/10/06 09:56:42;;;;;;;4.70;2.22;;;;;;;21.15;38.40;101243.41;5088451;28;20028;-30
2022/10/06 09:59:20;;;;;;;3.80;1.85;;;;;;;21.27;38.69;101237.78;5088036;28;20032;-29
2022/10/06 10:01:56;;;;;;;4.75;1.90;;;;;;;21.45;37.74;101229.25;5087821;28;20131;-29
2022/10/06 10:04:40;;;;;;;3.80;2.05;;;;;;;21.53;37.16;101230.63;5069746;28;20403;-28
2022/10/06 10:07:15;;;;;;;4.60;1.88;;;;;;;21.69;36.54;101222.56;5069697;28;20461;-28
2022/10/06 10:09:41;;;;;;;4.75;1.80;;;;;;;21.61;35.73;101216.56;5087779;28;20164;-30
2022/10/06 10:12:23;;;;;;;3.33;1.77;;;;;;;21.91;35.31;101223.19;5087535;28;20028;-30
2022/10/06 10:14:56;;;;;;;3.15;1.80;;;;;;;22.00;36.30;101207.19;5088126;28;20039;-26
2022/10/06 10:17:34;;;;;;;2.53;1.85;;;;;;;22.18;35.10;101181.44;5087507;28;20050;-27
2022/10/06 10:20:02;;;;;;;4.50;1.88;;;;;;;22.19;35.66;101193.91;5088011;28;20059;-28
2022/10/06 10:22:37;;;;;;;3.00;1.58;;;;;;;22.26;33.69;101189.88;5087663;28;20092;-30
2022/10/06 10:25:28;;;;;;;3.05;1.40;;;;;;;22.30;32.99;101176.59;5087763;28;20032;-30
2022/10/06 10:28:16;;;;;;;2.10;1.30;;;;;;;22.50;32.70;101202.97;5069165;28;20059;-29
2022/10/06 10:31:08;;;;;;;2.72;1.30;;;;;;;22.95;32.65;101195.06;5087380;28;20067;-32
2022/10/06 10:34:11;;;;;;;6.63;1.70;;;;;;;23.10;32.83;101196.97;5040597;28;20039;-27
2022/10/06 10:36:44;;;;;;;3.60;1.42;;;;;;;22.96;31.38;101189.34;5087230;28;20055;-30
2022/10/06 10:39:30;;;;;;;3.45;1.60;;;;;;;22.33;34.48;101189.66;5087399;28;20023;-28
2022/10/06 10:42:00;;;;;;;2.67;1.60;;;;;;;22.42;34.06;101185.28;5069312;28;20032;-27
2022/10/06 10:44:36;;;;;;;3.65;1.48;;;;;;;22.43;32.45;101167.06;5069396;28;20550;-27
2022/10/06 10:47:24;;;;;;;3.28;1.90;;;;;;;23.02;32.70;101165.69;5087187;28;20024;-27
2022/10/06 10:50:10;;;;;;;6.75;3.00;;;;;;;23.45;32.95;101166.09;5087161;28;20035;-28
2022/10/06 10:52:41;;;;;;;5.43;1.70;;;;;;;23.34;32.95;101145.47;5069038;28;20096;-29
2022/10/06 10:55:33;;;;;;;2.72;1.73;;;;;;;23.58;32.98;101168.22;5086716;28;20111;-28
2022/10/06 10:58:20;;;;;;;5.70;1.90;;;;;;;23.16;32.53;101155.84;5068610;28;20039;-30
2022/10/06 11:00:52;;;;;;;3.70;1.70;;;;;;;23.19;32.33;101151.75;5085832;28;20494;-33
2022/10/06 11:03:17;;;;;;;3.58;1.50;;;;;;;23.41;32.60;101144.06;5087363;28;20054;-29
2022/10/06 11:05:56;;;;;;;3.92;1.70;;;;;;;23.84;32.35;101157.22;5086951;28;20755;-28
2022/10/06 11:08:28;;;;;;;5.07;1.88;;;;;;;23.94;30.95;101157.16;5085382;28;20032;-27
2022/10/06 11:10:57;;;;;;;4.05;1.30;;;;;;;23.80;31.56;101139.81;5085658;28;20039;-28
2022/10/06 11:13:37;;;;;;;3.72;1.70;;;;;;;23.66;30.76;101156.75;5068726;28;20032;-28
2022/10/06 11:16:19;;;;;;;3.17;1.70;;;;;;;24.08;30.84;101153.81;5086918;28;20050;-29
2022/10/06 11:19:13;;;;;;;2.35;1.50;;;;;;;24.61;29.46;101132.16;5086731;28;20024;-28
2022/10/06 11:21:49;;;;;;;3.65;1.40;;;;;;;24.36;29.62;101131.25;5086807;28;20624;-29
2022/10/06 11:24:17;;;;;;;2.60;1.50;;;;;;;24.23;30.29;101131.88;5086845;28;20032;-28
2022/10/06 11:27:06;;;;;;;2.38;1.40;;;;;;;24.06;30.20;101129.56;5086828;28;20122;-29
2022/10/06 11:29:56;;;;;;;5.05;1.40;;;;;;;23.56;31.26;101107.81;5085529;28;20113;-27
2022/10/06 11:32:38;;;;;;;4.47;1.20;;;;;;;23.72;32.91;101126.75;5068598;28;20089;-27
2022/10/06 11:35:22;;;;;;;3.63;1.42;;;;;;;23.75;30.70;101109.88;5085341;28;20032;-29
2022/10/06 11:37:59;;;;;;;2.42;1.10;;;;;;;24.36;32.34;101120.34;5068122;28;20084;-31
2022/10/06 11:40:28;;;;;;;;;;;;;;;24.13;31.77;101111.00;5085699;28;20036;-29
2022/10/06 11:43:38;;;;;;;3.10;1.33;;;;;;;24.22;30.17;101113.94;5086769;28;19916;-29
2022/10/06 11:46:35;;;;;;;1.90;1.23;;;;;;;24.55;28.45;101111.47;5081542;28;20105;-30
2022/10/06 11:49:27;;;;;;;2.17;1.20;;;;;;;24.76;28.23;101109.34;5078932;28;20492;-29
2022/10/06 11:51:56;;;;;;;2.83;1.35;;;;;;;24.40;29.03;101088.69;5047736;28;20043;-27
2022/10/06 11:54:42;;;;;;;2.90;1.50;;;;;;;25.18;28.43;101092.22;5086777;28;20028;-28
2022/10/06 11:57:23;;;;;;;2.37;1.37;;;;;;;25.57;28.92;101088.47;5086568;28;20123;-28